createdAt,value
2022-12-16T00:01:54.033Z,98497.81
2022-12-16T00:04:24.756Z,98502.09
2022-12-16T00:06:54.001Z,98498.66
2022-12-16T00:09:24.509Z,98501.25
2022-12-16T00:11:54.177Z,98500.38
2022-12-16T00:14:24.240Z,98497.72
2022-12-16T00:16:53.784Z,98514.84
2022-12-16T00:19:24.283Z,98508.88
2022-12-16T00:21:53.829Z,98514.91
2022-12-16T00:24:24.584Z,98517.41
2022-12-16T00:26:54.459Z,98525.16
2022-12-16T00:29:25.178Z,98526.09
2022-12-16T00:31:54.802Z,98518.38
2022-12-16T00:34:24.322Z,98518.34
2022-12-16T00:36:54.125Z,98516.66
2022-12-16T00:39:23.547Z,98514.97
2022-12-16T00:41:53.530Z,98511.56
2022-12-16T00:44:24.448Z,98516.56
2022-12-16T00:46:54.009Z,98519.06
2022-12-16T00:49:24.625Z,98514.75
2022-12-16T00:51:54.172Z,98519.91
2022-12-16T00:54:24.855Z,98520.69
2022-12-16T00:56:54.887Z,98532.69
2022-12-16T00:59:24.861Z,98534.38
2022-12-16T01:01:58.996Z,98537.81
2022-12-16T01:04:31.333Z,98541.34
2022-12-16T01:07:07.697Z,98545.66
2022-12-16T01:09:42.186Z,98550.88
2022-12-16T01:12:14.875Z,98555.00
2022-12-16T01:14:46.642Z,98556.09
2022-12-16T01:17:16.534Z,98566.53
2022-12-16T01:19:46.862Z,98564.91
2022-12-16T01:22:17.020Z,98570.88
2022-12-16T01:24:47.408Z,98571.78
2022-12-16T01:27:17.976Z,98584.66
2022-12-16T01:29:48.278Z,98590.69
2022-12-16T01:32:18.435Z,98586.41
2022-12-16T01:34:55.856Z,98589.88
2022-12-16T01:37:26.554Z,98590.81
2022-12-16T01:39:56.528Z,98590.84
2022-12-16T01:42:30.046Z,98590.00
2022-12-16T01:45:20.048Z,98594.31
2022-12-16T01:47:50.084Z,98607.16
2022-12-16T01:50:21.299Z,98611.47
2022-12-16T01:52:57.301Z,98620.03
2022-12-16T01:55:34.314Z,98616.59
2022-12-16T01:58:13.132Z,98622.63
2022-12-16T02:00:43.716Z,98620.97
2022-12-16T02:03:14.280Z,98620.06
2022-12-16T02:05:46.476Z,98627.78
2022-12-16T02:08:21.652Z,98625.25
2022-12-16T02:11:29.788Z,98632.91
2022-12-16T02:14:24.590Z,98640.59
2022-12-16T02:17:01.666Z,98645.78
2022-12-16T02:20:15.482Z,98653.47
2022-12-16T02:22:54.572Z,98654.34
2022-12-16T02:25:55.357Z,98656.88
2022-12-16T02:28:37.135Z,98652.66
2022-12-16T02:31:30.888Z,98656.03
2022-12-16T02:34:10.154Z,98649.22
2022-12-16T02:37:18.161Z,98653.44
2022-12-16T02:39:54.858Z,98647.44
2022-12-16T02:42:54.999Z,98652.59
2022-12-16T02:45:32.610Z,98644.00
2022-12-16T02:48:02.407Z,98644.06
2022-12-16T02:50:54.370Z,98649.13
2022-12-16T02:53:38.435Z,98648.31
2022-12-16T02:56:19.978Z,98644.78
2022-12-16T02:59:08.220Z,98650.81
2022-12-16T03:02:03.657Z,98649.03
2022-12-16T03:04:38.861Z,98654.19
2022-12-16T03:07:15.282Z,98659.31
2022-12-16T03:09:47.913Z,98658.44
2022-12-16T03:12:22.133Z,98659.25
2022-12-16T03:14:54.804Z,98671.22
2022-12-16T03:17:28.140Z,98670.28
2022-12-16T03:20:13.504Z,98674.47
2022-12-16T03:22:47.186Z,98677.94
2022-12-16T03:25:19.347Z,98688.22
2022-12-16T03:28:21.132Z,98697.59
2022-12-16T03:30:59.574Z,98700.13
2022-12-16T03:33:39.852Z,98705.25
2022-12-16T03:36:17.637Z,98711.09
2022-12-16T03:38:49.309Z,98704.19
2022-12-16T03:41:22.138Z,98717.88
2022-12-16T03:43:54.058Z,98726.38
2022-12-16T03:46:24.014Z,98719.47
2022-12-16T03:48:54.886Z,98720.22
2022-12-16T03:51:25.735Z,98715.88
2022-12-16T03:53:55.637Z,98714.16
2022-12-16T03:56:25.213Z,98720.09
2022-12-16T03:58:54.702Z,98726.03
2022-12-16T04:01:25.265Z,98729.41
2022-12-16T04:03:55.761Z,98732.75
2022-12-16T04:06:26.042Z,98735.09
2022-12-16T04:08:56.328Z,98738.44
2022-12-16T04:11:44.305Z,98746.94
2022-12-16T04:14:31.955Z,98746.88
2022-12-16T04:17:20.201Z,98745.03
2022-12-16T04:20:08.854Z,98744.00
2022-12-16T04:22:59.841Z,98752.44
2022-12-16T04:25:37.912Z,98743.78
2022-12-16T04:28:08.034Z,98747.09
2022-12-16T04:30:38.182Z,98746.13
2022-12-16T04:33:35.207Z,98744.19
2022-12-16T04:36:23.720Z,98747.75
2022-12-16T04:39:12.695Z,98744.31
2022-12-16T04:42:00.884Z,98752.75
2022-12-16T04:44:49.215Z,98752.63
2022-12-16T04:47:37.719Z,98754.31
2022-12-16T04:50:26.366Z,98764.63
2022-12-16T04:53:14.216Z,98757.59
2022-12-16T04:56:04.371Z,98759.97
2022-12-16T04:58:52.610Z,98765.03
2022-12-16T05:01:41.386Z,98764.88
2022-12-16T05:04:29.341Z,98750.16
2022-12-16T05:07:17.183Z,98750.03
2022-12-16T05:10:05.868Z,98743.72
2022-12-16T05:12:54.315Z,98746.00
2022-12-16T05:15:42.562Z,98747.50
2022-12-16T05:18:35.750Z,98745.50
2022-12-16T05:21:23.816Z,98746.16
2022-12-16T05:24:11.888Z,98738.22
2022-12-16T05:27:00.226Z,98743.16
2022-12-16T05:29:48.901Z,98741.19
2022-12-16T05:32:37.196Z,98735.84
2022-12-16T05:35:26.196Z,98743.41
2022-12-16T05:38:14.671Z,98743.22
2022-12-16T05:41:02.769Z,98734.28
2022-12-16T05:43:51.425Z,98725.41
2022-12-16T05:46:39.967Z,98725.16
2022-12-16T05:49:28.244Z,98717.22
2022-12-16T05:52:16.951Z,98725.53
2022-12-16T05:55:05.942Z,98728.81
2022-12-16T05:57:53.675Z,98725.97
2022-12-16T06:00:41.761Z,98731.31
2022-12-16T06:03:30.548Z,98727.28
2022-12-16T06:06:19.628Z,98727.88
2022-12-16T06:09:09.633Z,98731.75
2022-12-16T06:11:58.366Z,98727.34
2022-12-16T06:14:47.666Z,98729.19
2022-12-16T06:17:36.034Z,98728.13
2022-12-16T06:20:24.621Z,98718.94
2022-12-16T06:23:13.487Z,98713.47
2022-12-16T06:26:02.684Z,98716.00
2022-12-16T06:28:50.952Z,98706.59
2022-12-16T06:31:39.289Z,98709.00
2022-12-16T06:34:27.862Z,98702.41
2022-12-16T06:37:17.387Z,98702.28
2022-12-16T06:40:05.141Z,98695.53
2022-12-16T06:42:53.288Z,98689.31
2022-12-16T06:45:41.862Z,98684.84
2022-12-16T06:48:30.390Z,98682.72
2022-12-16T06:51:19.594Z,98691.84
2022-12-16T06:54:08.668Z,98689.31
2022-12-16T06:56:58.280Z,98684.97
2022-12-16T06:59:46.412Z,98679.38
2022-12-16T07:02:34.715Z,98681.34
2022-12-16T07:05:22.711Z,98671.78
2022-12-16T07:08:11.862Z,98675.97
2022-12-16T07:11:15.574Z,98670.19
2022-12-16T07:14:05.055Z,98666.88
2022-12-16T07:16:58.405Z,98665.16
2022-12-16T07:19:46.585Z,98665.06
2022-12-16T07:22:34.586Z,98658.78
2022-12-16T07:25:22.887Z,98653.47
2022-12-16T07:28:15.432Z,98652.56
2022-12-16T07:31:04.285Z,98650.41
2022-12-16T07:33:52.297Z,98646.41
2022-12-16T07:36:43.244Z,98642.03
2022-12-16T07:39:31.678Z,98639.94
2022-12-16T07:42:36.399Z,98641.72
2022-12-16T07:45:25.523Z,98638.69
2022-12-16T07:48:13.229Z,98634.34
2022-12-16T07:51:01.937Z,98622.09
2022-12-16T07:53:50.527Z,98623.06
2022-12-16T07:56:38.670Z,98618.50
2022-12-16T07:59:26.446Z,98609.66
2022-12-16T08:02:14.357Z,98606.97
2022-12-16T08:05:02.510Z,98599.34
2022-12-16T08:07:50.867Z,98594.03
2022-12-16T08:10:38.812Z,98583.91
2022-12-16T08:13:26.743Z,98583.19
2022-12-16T08:16:15.045Z,98590.88
2022-12-16T08:22:12.192Z,98586.13
2022-12-16T08:24:59.646Z,98590.31
2022-12-16T08:27:47.817Z,98580.59
2022-12-16T08:30:35.438Z,98589.25
2022-12-16T08:33:24.533Z,98590.31
2022-12-16T08:36:12.455Z,98582.06
2022-12-16T08:39:02.186Z,98580.09
2022-12-16T08:41:49.933Z,98583.00
2022-12-16T08:44:38.125Z,98574.69
2022-12-16T08:47:25.959Z,98578.28
2022-12-16T08:50:14.716Z,98572.38
2022-12-16T08:53:03.152Z,98571.50
2022-12-16T08:55:51.576Z,98574.03
2022-12-16T08:58:44.007Z,98573.50
2022-12-16T09:01:32.025Z,98574.56
2022-12-16T09:04:20.779Z,98574.91
2022-12-16T09:07:08.625Z,98581.59
2022-12-16T09:09:56.604Z,98572.81
2022-12-16T09:12:52.492Z,98575.25
2022-12-16T09:15:41.443Z,98581.13
2022-12-16T09:18:30.311Z,98579.31
2022-12-16T09:21:18.654Z,98578.28
2022-12-16T09:24:06.997Z,98581.97
2022-12-16T09:26:54.938Z,98582.09
2022-12-16T09:29:45.080Z,98577.06
2022-12-16T09:32:34.080Z,98584.28
2022-12-16T09:35:22.873Z,98584.09
2022-12-16T09:38:11.051Z,98589.00
2022-12-16T09:41:00.657Z,98589.00
2022-12-16T09:44:22.234Z,98588.34
2022-12-16T09:47:17.439Z,98585.31
2022-12-16T09:50:10.752Z,98584.53
2022-12-16T09:53:10.814Z,98580.16
2022-12-16T09:56:04.050Z,98583.06
2022-12-16T09:59:07.781Z,98581.19
2022-12-16T10:01:58.618Z,98580.84
2022-12-16T10:04:47.296Z,98582.06
2022-12-16T10:07:41.113Z,98578.09
2022-12-16T10:10:47.388Z,98575.53
2022-12-16T10:13:47.612Z,98577.47
2022-12-16T10:16:48.660Z,98575.06
2022-12-16T10:20:09.816Z,98580.22
2022-12-16T10:23:10.792Z,98576.75
2022-12-16T10:26:29.723Z,98574.78
2022-12-16T10:29:45.150Z,98580.34
2022-12-16T10:33:10.568Z,98569.97
2022-12-16T10:36:09.404Z,98571.94
2022-12-16T10:39:18.036Z,98567.16
2022-12-16T10:42:10.332Z,98576.50
2022-12-16T10:44:58.396Z,98565.81
2022-12-16T10:47:46.073Z,98569.47
2022-12-16T10:50:34.843Z,98562.72
2022-12-16T10:53:30.802Z,98566.09
2022-12-16T10:56:36.779Z,98562.59
2022-12-16T10:59:29.004Z,98568.34
2022-12-16T11:02:25.851Z,98563.84
2022-12-16T11:05:13.829Z,98566.50
2022-12-16T11:08:04.287Z,98561.53
2022-12-16T11:11:01.759Z,98565.09
2022-12-16T11:13:53.764Z,98564.47
2022-12-16T11:16:45.961Z,98568.13
2022-12-16T11:19:53.864Z,98572.38
2022-12-16T11:22:43.551Z,98568.84
2022-12-16T11:25:37.487Z,98571.63
2022-12-16T11:28:33.794Z,98570.25
2022-12-16T11:31:42.655Z,98578.72
2022-12-16T11:34:31.373Z,98569.91
2022-12-16T11:37:21.246Z,98571.91
2022-12-16T11:40:09.624Z,98565.00
2022-12-16T11:43:02.650Z,98570.28
2022-12-16T11:45:54.822Z,98563.78
2022-12-16T11:49:13.006Z,98569.41
2022-12-16T11:52:28.108Z,98565.72
2022-12-16T11:59:10.908Z,98562.56
2022-12-16T12:02:17.727Z,98570.84
2022-12-16T12:05:11.740Z,98566.78
2022-12-16T12:08:25.541Z,98561.66
2022-12-16T12:11:41.379Z,98570.78
2022-12-16T12:14:50.665Z,98569.47
2022-12-16T12:17:43.296Z,98572.25
2022-12-16T12:20:50.122Z,98576.56
2022-12-16T12:23:57.880Z,98576.66
2022-12-16T12:26:55.092Z,98579.47
2022-12-16T12:30:16.350Z,98574.44
2022-12-16T12:33:32.295Z,98585.00
2022-12-16T12:36:34.523Z,98578.47
2022-12-16T12:39:52.724Z,98580.25
2022-12-16T12:43:10.841Z,98594.28
2022-12-16T12:46:24.727Z,98597.16
2022-12-16T12:49:31.382Z,98591.69
2022-12-16T12:52:57.727Z,98599.25
2022-12-16T12:56:01.989Z,98600.34
2022-12-16T12:58:54.364Z,98604.84
2022-12-16T13:01:50.800Z,98609.38
2022-12-16T13:04:43.111Z,98607.94
2022-12-16T13:07:31.399Z,98616.97
2022-12-16T13:10:45.294Z,98615.13
2022-12-16T13:13:48.673Z,98622.16
2022-12-16T13:17:03.863Z,98628.28
2022-12-16T13:19:51.326Z,98640.09
2022-12-16T13:22:56.224Z,98638.16
2022-12-16T13:26:18.272Z,98646.84
2022-12-16T13:29:34.551Z,98649.41
2022-12-16T13:32:24.017Z,98655.06
2022-12-16T13:35:29.656Z,98662.47
2022-12-16T13:38:38.590Z,98662.72
2022-12-16T13:41:46.876Z,98664.59
2022-12-16T13:45:04.022Z,98670.78
2022-12-16T13:47:54.663Z,98665.00
2022-12-16T13:51:00.586Z,98668.44
2022-12-16T13:53:52.699Z,98674.66
2022-12-16T13:57:08.080Z,98677.19
2022-12-16T14:00:00.637Z,98677.25
2022-12-16T14:03:17.695Z,98688.47
2022-12-16T14:06:05.292Z,98687.91
2022-12-16T14:08:57.863Z,98684.41
2022-12-16T14:12:13.030Z,98690.31
2022-12-16T14:15:11.743Z,98691.25
2022-12-16T14:18:19.557Z,98686.06
2022-12-16T14:21:26.747Z,98686.06
2022-12-16T14:24:30.714Z,98690.72
2022-12-16T14:27:24.391Z,98693.41
2022-12-16T14:30:12.364Z,98695.97
2022-12-16T14:33:00.856Z,98693.41
2022-12-16T14:35:48.957Z,98692.72
2022-12-16T14:38:50.029Z,98697.81
2022-12-16T14:41:45.699Z,98691.97
2022-12-16T14:44:41.879Z,98692.88
2022-12-16T14:47:41.758Z,98691.16
2022-12-16T14:50:42.046Z,98692.84
2022-12-16T14:53:44.069Z,98695.38
2022-12-16T14:56:39.039Z,98701.47
2022-12-16T14:59:38.561Z,98702.28
2022-12-16T15:02:51.561Z,98705.72
2022-12-16T15:05:41.602Z,98707.69
2022-12-16T15:08:32.979Z,98701.53
2022-12-16T15:11:24.231Z,98710.38
2022-12-16T15:14:18.048Z,98709.44
2022-12-16T15:17:09.628Z,98709.50
2022-12-16T15:20:05.607Z,98713.00
2022-12-16T15:22:54.621Z,98720.13
2022-12-16T15:25:47.116Z,98726.94
2022-12-16T15:28:59.317Z,98736.47
2022-12-16T15:32:13.663Z,98731.47
2022-12-16T15:35:09.357Z,98734.13
2022-12-16T15:38:04.431Z,98739.44
2022-12-16T15:41:04.639Z,98742.94
2022-12-16T15:43:57.557Z,98738.72
2022-12-16T15:46:50.746Z,98743.00
2022-12-16T15:50:04.109Z,98740.34
2022-12-16T15:53:01.020Z,98742.13
2022-12-16T15:56:04.935Z,98741.28
2022-12-16T15:58:55.517Z,98749.16
2022-12-16T16:01:48.012Z,98741.38
2022-12-16T16:04:48.106Z,98744.78
2022-12-16T16:07:38.723Z,98748.31
2022-12-16T16:10:46.786Z,98747.44
2022-12-16T16:13:35.144Z,98749.34
2022-12-16T16:16:24.374Z,98759.69
2022-12-16T16:19:12.412Z,98745.09
2022-12-16T16:22:00.716Z,98754.59
2022-12-16T16:24:49.023Z,98752.97
2022-12-16T16:27:39.781Z,98759.00
2022-12-16T16:30:31.939Z,98763.31
2022-12-16T16:33:22.134Z,98763.44
2022-12-16T16:36:11.851Z,98777.16
2022-12-16T16:39:00.580Z,98774.66
2022-12-16T16:41:49.177Z,98781.56
2022-12-16T16:44:37.430Z,98782.47
2022-12-16T16:47:35.139Z,98781.50
2022-12-16T16:50:23.342Z,98785.94
2022-12-16T16:53:11.437Z,98797.94
2022-12-16T16:55:59.157Z,98796.31
2022-12-16T16:58:50.483Z,98807.38
2022-12-16T17:01:39.057Z,98804.88
2022-12-16T17:04:27.259Z,98803.19
2022-12-16T17:07:15.093Z,98806.63
2022-12-16T17:10:03.247Z,98803.16
2022-12-16T17:12:51.201Z,98811.78
2022-12-16T17:15:51.570Z,98815.94
2022-12-16T17:18:44.649Z,98809.25
2022-12-16T17:21:35.014Z,98810.94
2022-12-16T17:24:23.694Z,98815.28
2022-12-16T17:27:11.783Z,98823.03
2022-12-16T17:30:00.058Z,98817.88
2022-12-16T17:33:08.191Z,98821.31
2022-12-16T17:35:56.708Z,98824.75
2022-12-16T17:38:44.891Z,98818.75
2022-12-16T17:41:33.260Z,98817.06
2022-12-16T17:44:21.131Z,98822.22
2022-12-16T17:47:12.344Z,98829.91
2022-12-16T17:50:00.303Z,98820.56
2022-12-16T17:52:49.242Z,98812.84
2022-12-16T17:55:37.609Z,98816.31
2022-12-16T17:58:25.485Z,98812.91
2022-12-16T18:01:13.623Z,98816.41
2022-12-16T18:04:02.342Z,98824.13
2022-12-16T18:06:50.154Z,98810.41
2022-12-16T18:09:38.264Z,98814.69
2022-12-16T18:12:25.814Z,98813.03
2022-12-16T18:15:13.833Z,98815.63
2022-12-16T18:18:01.458Z,98814.78
2022-12-16T18:20:49.253Z,98810.50
2022-12-16T18:23:37.366Z,98811.34
2022-12-16T18:26:28.684Z,98817.25
2022-12-16T18:29:16.833Z,98815.66
2022-12-16T18:32:05.042Z,98814.84
2022-12-16T18:34:52.941Z,98812.25
2022-12-16T18:37:41.057Z,98811.47
2022-12-16T18:40:29.547Z,98808.06
2022-12-16T18:43:17.695Z,98806.38
2022-12-16T18:46:12.490Z,98804.66
2022-12-16T18:49:00.416Z,98802.94
2022-12-16T18:51:48.424Z,98808.13
2022-12-16T18:54:36.438Z,98801.22
2022-12-16T18:57:24.448Z,98799.56
2022-12-16T19:00:12.911Z,98796.97
2022-12-16T19:03:00.637Z,98791.84
2022-12-16T19:05:48.741Z,98787.59
2022-12-16T19:08:36.789Z,98792.75
2022-12-16T19:11:24.985Z,98802.19
2022-12-16T19:14:12.718Z,98793.56
2022-12-16T19:17:00.753Z,98783.28
2022-12-16T19:19:48.625Z,98783.31
2022-12-16T19:22:36.819Z,98781.59
2022-12-16T19:25:24.639Z,98776.44
2022-12-16T19:28:12.428Z,98777.31
2022-12-16T19:31:00.102Z,98779.88
2022-12-16T19:33:47.672Z,98780.75
2022-12-16T19:36:40.597Z,98774.75
2022-12-16T19:39:31.511Z,98773.00
2022-12-16T19:42:19.683Z,98785.84
2022-12-16T19:45:07.243Z,98784.19
2022-12-16T19:47:57.442Z,98775.66
2022-12-16T19:50:45.418Z,98771.34
2022-12-16T19:53:33.671Z,98766.19
2022-12-16T19:56:21.238Z,98765.31
2022-12-16T19:59:09.125Z,98762.75
2022-12-16T20:01:57.534Z,98761.06
2022-12-16T20:04:45.912Z,98758.50
2022-12-16T20:07:33.717Z,98761.94
2022-12-16T20:10:21.513Z,98761.94
2022-12-16T20:13:09.148Z,98757.69
2022-12-16T20:15:57.305Z,98760.22
2022-12-16T20:18:44.754Z,98761.94
2022-12-16T20:21:32.406Z,98770.53
2022-12-16T20:24:20.677Z,98773.94
2022-12-16T20:27:08.725Z,98778.22
2022-12-16T20:29:57.169Z,98781.69
2022-12-16T20:32:44.900Z,98779.16
2022-12-16T20:35:33.125Z,98775.72
2022-12-16T20:38:21.015Z,98775.75
2022-12-16T20:41:18.382Z,98771.41
2022-12-16T20:44:10.479Z,98776.56
2022-12-16T20:46:59.099Z,98776.59
2022-12-16T20:49:46.634Z,98775.75
2022-12-16T20:52:34.686Z,98768.06
2022-12-16T20:55:22.670Z,98766.34
2022-12-16T20:58:10.808Z,98764.63
2022-12-16T21:00:58.848Z,98763.75
2022-12-16T21:03:46.542Z,98762.13
2022-12-16T21:06:34.426Z,98759.53
2022-12-16T21:09:33.268Z,98760.41
2022-12-16T21:12:20.974Z,98767.25
2022-12-16T21:15:08.727Z,98769.00
2022-12-16T21:17:57.466Z,98766.44
2022-12-16T21:20:45.235Z,98762.94
2022-12-16T21:23:32.747Z,98772.41
2022-12-16T21:26:20.568Z,98769.81
2022-12-16T21:29:08.415Z,98776.69
2022-12-16T21:31:57.179Z,98778.38
2022-12-16T21:34:44.986Z,98773.25
2022-12-16T21:37:33.270Z,98777.53
2022-12-16T21:40:20.939Z,98778.38
2022-12-16T21:43:09.293Z,98780.94
2022-12-16T21:46:01.822Z,98786.09
2022-12-16T21:48:49.884Z,98774.13
2022-12-16T21:51:38.004Z,98775.81
2022-12-16T21:54:25.949Z,98773.31
2022-12-16T21:57:13.695Z,98779.28
2022-12-16T22:00:01.504Z,98781.00
2022-12-16T22:02:58.291Z,98770.72
2022-12-16T22:05:46.007Z,98773.31
2022-12-16T22:08:33.664Z,98769.91
2022-12-16T22:11:32.344Z,98763.88
2022-12-16T22:14:20.236Z,98765.59
2022-12-16T22:17:08.124Z,98768.16
2022-12-16T22:19:56.517Z,98759.59
2022-12-16T22:22:44.067Z,98767.31
2022-12-16T22:25:32.073Z,98761.31
2022-12-16T22:28:19.707Z,98763.91
2022-12-16T22:31:15.856Z,98765.63
2022-12-16T22:34:04.455Z,98760.44
2022-12-16T22:36:52.156Z,98752.75
2022-12-16T22:39:44.583Z,98760.47
2022-12-16T22:42:33.186Z,98753.63
2022-12-16T22:45:20.794Z,98751.88
2022-12-16T22:48:08.627Z,98757.88
2022-12-16T22:50:56.918Z,98745.03
2022-12-16T22:53:45.333Z,98739.88
2022-12-16T22:56:33.283Z,98745.91
2022-12-16T22:59:20.925Z,98740.75
2022-12-16T23:02:08.865Z,98745.03
2022-12-16T23:04:57.816Z,98740.75
2022-12-16T23:07:45.966Z,98744.19
2022-12-16T23:10:33.827Z,98743.34
2022-12-16T23:13:21.674Z,98741.66
2022-12-16T23:16:09.464Z,98741.66
2022-12-16T23:19:00.609Z,98739.09
2022-12-16T23:21:48.331Z,98745.06
2022-12-16T23:24:36.116Z,98743.34
2022-12-16T23:27:24.017Z,98745.06
2022-12-16T23:30:11.848Z,98753.63
2022-12-16T23:32:59.394Z,98745.94
2022-12-16T23:35:47.000Z,98744.22
2022-12-16T23:38:34.858Z,98748.50
2022-12-16T23:41:22.733Z,98754.47
2022-12-16T23:44:10.456Z,98747.63
2022-12-16T23:46:58.237Z,98749.34
2022-12-16T23:49:46.255Z,98747.66
2022-12-16T23:52:34.131Z,98743.38
2022-12-16T23:55:21.932Z,98757.06
2022-12-16T23:58:18.533Z,98757.94
